createdAt,value
2022-09-29T00:00:07.978Z,9.90
2022-09-29T00:05:30.715Z,9.30
2022-09-29T00:10:33.471Z,8.60
2022-09-29T00:15:36.181Z,7.10
2022-09-29T00:20:39.142Z,6.40
2022-09-29T00:25:42.448Z,6.20
2022-09-29T00:30:45.253Z,5.70
2022-09-29T00:35:59.049Z,5.30
2022-09-29T00:41:02.021Z,4.90
2022-09-29T00:46:07.343Z,5.30
2022-09-29T00:51:10.280Z,6.00
2022-09-29T00:56:14.478Z,5.50
2022-09-29T01:01:17.222Z,6.10
2022-09-29T01:06:22.513Z,5.70
2022-09-29T01:11:25.329Z,5.70
2022-09-29T01:16:28.172Z,5.50
2022-09-29T01:21:59.606Z,5.60
2022-09-29T01:27:32.986Z,5.50
2022-09-29T01:33:07.008Z,6.70
2022-09-29T01:38:34.189Z,5.90
2022-09-29T01:44:04.592Z,6.10
2022-09-29T01:49:07.504Z,6.20
2022-09-29T01:54:15.710Z,5.80
2022-09-29T01:59:44.160Z,6.10
2022-09-29T02:04:51.304Z,5.80
2022-09-29T02:10:01.991Z,5.90
2022-09-29T02:15:07.665Z,6.10
2022-09-29T02:20:12.076Z,6.40
2022-09-29T02:25:16.785Z,5.90
2022-09-29T02:30:19.579Z,6.60
2022-09-29T02:35:22.482Z,7.00
2022-09-29T02:40:37.636Z,6.90
2022-09-29T02:46:07.255Z,7.40
2022-09-29T02:51:36.916Z,8.20
2022-09-29T02:57:12.276Z,8.00
2022-09-29T03:02:16.407Z,7.10
2022-09-29T03:07:20.547Z,7.20
2022-09-29T03:12:24.146Z,7.20
2022-09-29T03:17:26.928Z,7.40
2022-09-29T03:22:29.734Z,7.70
2022-09-29T03:27:33.483Z,8.00
2022-09-29T03:32:36.238Z,7.20
2022-09-29T03:37:38.958Z,7.80
2022-09-29T03:42:41.682Z,6.30
2022-09-29T03:47:44.498Z,7.50
2022-09-29T03:52:47.252Z,8.90
2022-09-29T03:57:50.043Z,9.10
2022-09-29T04:02:55.078Z,8.30
2022-09-29T04:07:57.966Z,11.90
2022-09-29T04:13:00.826Z,9.70
2022-09-29T04:18:03.707Z,8.00
2022-09-29T04:23:06.716Z,8.90
2022-09-29T04:28:09.513Z,9.20
2022-09-29T04:33:12.281Z,8.10
2022-09-29T04:38:15.024Z,8.40
2022-09-29T04:43:17.817Z,8.10
2022-09-29T04:48:20.663Z,8.60
2022-09-29T04:53:23.368Z,8.50
2022-09-29T04:58:26.183Z,8.50
2022-09-29T05:03:29.301Z,10.60
2022-09-29T05:08:32.352Z,11.10
2022-09-29T05:13:35.837Z,14.10
2022-09-29T05:18:39.480Z,11.50
2022-09-29T05:23:42.879Z,9.90
2022-09-29T05:28:47.176Z,10.60
2022-09-29T05:33:50.111Z,10.20
2022-09-29T05:38:53.594Z,9.40
2022-09-29T05:43:56.553Z,9.60
2022-09-29T05:48:59.330Z,11.30
2022-09-29T05:54:02.502Z,11.00
2022-09-29T05:59:05.267Z,11.30
2022-09-29T06:04:08.119Z,11.30
2022-09-29T06:09:10.960Z,9.90
2022-09-29T06:14:13.727Z,9.20
2022-09-29T06:19:16.751Z,9.50
2022-09-29T06:24:19.530Z,10.00
2022-09-29T06:29:22.345Z,12.80
2022-09-29T06:34:25.206Z,11.20
2022-09-29T06:39:28.098Z,10.20
2022-09-29T06:44:31.267Z,9.30
2022-09-29T06:49:34.596Z,11.00
2022-09-29T06:54:37.333Z,9.80
2022-09-29T06:59:40.514Z,9.60
2022-09-29T07:04:43.224Z,9.90
2022-09-29T07:09:46.139Z,9.90
2022-09-29T07:14:48.860Z,9.40
2022-09-29T07:19:52.541Z,9.80
2022-09-29T07:24:55.486Z,8.00
2022-09-29T07:30:03.507Z,7.20
2022-09-29T07:35:07.258Z,8.10
2022-09-29T07:40:10.247Z,7.90
2022-09-29T07:45:13.158Z,8.40
2022-09-29T07:50:15.922Z,7.60
2022-09-29T07:55:19.694Z,8.30
2022-09-29T08:00:22.814Z,8.00
2022-09-29T08:05:27.591Z,7.30
2022-09-29T08:10:40.652Z,8.40
2022-09-29T08:15:56.927Z,7.20
2022-09-29T08:21:02.915Z,8.20
2022-09-29T08:26:12.310Z,7.40
2022-09-29T08:31:21.462Z,7.50
2022-09-29T08:36:24.551Z,6.70
2022-09-29T08:41:45.950Z,6.60
2022-09-29T08:47:04.117Z,7.60
2022-09-29T08:52:45.137Z,6.80
2022-09-29T08:57:59.588Z,7.20
2022-09-29T09:03:12.472Z,6.90
2022-09-29T09:08:34.445Z,6.40
2022-09-29T09:13:51.136Z,7.00
2022-09-29T09:19:30.667Z,6.60
2022-09-29T09:25:27.862Z,6.60
2022-09-29T09:30:38.294Z,7.30
2022-09-29T09:35:56.685Z,6.30
2022-09-29T09:41:04.085Z,6.90
2022-09-29T09:46:35.760Z,7.10
2022-09-29T09:57:26.145Z,6.90
2022-09-29T10:02:28.854Z,6.90
2022-09-29T10:07:31.587Z,6.20
2022-09-29T10:12:34.674Z,6.50
2022-09-29T10:17:42.392Z,6.10
2022-09-29T10:22:48.466Z,6.50
2022-09-29T10:27:54.983Z,6.90
2022-09-29T10:33:02.573Z,6.80
2022-09-29T10:38:08.143Z,6.00
2022-09-29T10:43:24.989Z,5.90
2022-09-29T10:48:28.311Z,5.60
2022-09-29T10:53:35.051Z,5.40
2022-09-29T10:58:57.757Z,6.30
2022-09-29T11:04:07.454Z,5.70
2022-09-29T11:09:13.376Z,4.90
2022-09-29T11:14:26.378Z,5.40
2022-09-29T11:19:30.053Z,5.70
2022-09-29T11:24:47.965Z,6.80
2022-09-29T11:30:04.104Z,5.30
2022-09-29T11:35:31.687Z,5.60
2022-09-29T11:40:51.210Z,5.40
2022-09-29T11:46:31.490Z,5.60
2022-09-29T11:52:35.676Z,6.30
2022-09-29T11:58:23.191Z,7.30
2022-09-29T12:04:07.838Z,6.50
2022-09-29T12:09:40.538Z,7.10
2022-09-29T12:20:34.564Z,6.10
2022-09-29T12:25:40.987Z,5.90
2022-09-29T12:30:51.857Z,5.20
2022-09-29T12:36:27.755Z,5.50
2022-09-29T12:41:33.368Z,4.70
2022-09-29T12:46:47.472Z,4.80
2022-09-29T12:51:51.712Z,4.80
2022-09-29T12:57:35.289Z,5.30
2022-09-29T13:03:05.919Z,5.50
2022-09-29T13:09:03.009Z,5.70
2022-09-29T13:14:20.986Z,6.30
2022-09-29T13:19:58.728Z,6.40
2022-09-29T13:25:20.437Z,6.70
2022-09-29T13:30:28.770Z,5.30
2022-09-29T13:35:31.545Z,6.50
2022-09-29T13:40:34.292Z,6.60
2022-09-29T13:45:41.342Z,6.40
2022-09-29T13:50:53.061Z,7.60
2022-09-29T13:56:02.629Z,8.20
2022-09-29T14:01:06.865Z,8.00
2022-09-29T14:06:40.204Z,7.60
2022-09-29T14:11:52.894Z,5.40
2022-09-29T14:17:18.262Z,4.80
2022-09-29T14:22:30.234Z,4.00
2022-09-29T14:27:40.210Z,3.90
2022-09-29T14:32:46.446Z,3.40
2022-09-29T14:38:01.141Z,3.40
2022-09-29T14:43:13.802Z,3.50
2022-09-29T14:48:46.478Z,3.20
2022-09-29T14:54:10.694Z,3.20
2022-09-29T14:59:27.206Z,3.30
2022-09-29T15:04:30.222Z,4.10
2022-09-29T15:09:36.285Z,3.80
2022-09-29T15:14:41.763Z,4.30
2022-09-29T15:20:00.362Z,4.40
2022-09-29T15:25:10.632Z,4.70
2022-09-29T15:30:16.912Z,4.60
2022-09-29T15:35:24.925Z,5.40
2022-09-29T15:40:28.063Z,5.90
2022-09-29T15:45:31.711Z,6.40
2022-09-29T15:50:42.181Z,7.50
2022-09-29T15:55:45.131Z,8.40
2022-09-29T16:00:48.484Z,8.00
2022-09-29T16:06:12.017Z,8.00
2022-09-29T16:11:36.092Z,7.60
2022-09-29T16:16:47.761Z,8.00
2022-09-29T16:21:55.143Z,8.30
2022-09-29T16:26:58.437Z,8.30
2022-09-29T16:32:35.272Z,8.60
2022-09-29T16:37:40.330Z,8.70
2022-09-29T16:42:46.096Z,8.50
2022-09-29T16:47:51.234Z,7.90
2022-09-29T16:52:54.254Z,9.20
2022-09-29T16:58:12.539Z,9.70
2022-09-29T17:03:15.388Z,9.40
2022-09-29T17:08:22.355Z,10.30
2022-09-29T17:13:25.193Z,10.30
2022-09-29T17:18:29.377Z,9.90
2022-09-29T17:23:33.199Z,9.60
2022-09-29T17:28:36.698Z,10.10
2022-09-29T17:33:41.513Z,11.20
2022-09-29T17:38:46.499Z,12.80
2022-09-29T17:43:49.215Z,12.50
2022-09-29T17:48:51.935Z,12.50
2022-09-29T17:53:54.776Z,12.10
2022-09-29T17:58:57.603Z,12.20
2022-09-29T18:04:01.967Z,11.10
2022-09-29T18:09:16.331Z,11.40
2022-09-29T18:14:19.135Z,13.00
2022-09-29T18:19:21.923Z,13.10
2022-09-29T18:24:24.761Z,13.70
2022-09-29T18:29:27.652Z,16.30
2022-09-29T18:34:33.660Z,15.30
2022-09-29T18:39:36.530Z,17.90
2022-09-29T18:44:39.547Z,20.70
2022-09-29T18:49:43.229Z,25.80
2022-09-29T18:54:46.273Z,27.90
2022-09-29T18:59:51.958Z,25.10
2022-09-29T19:04:55.379Z,23.20
2022-09-29T19:09:58.163Z,23.00
2022-09-29T19:15:01.519Z,23.00
2022-09-29T19:20:04.972Z,21.40
2022-09-29T19:25:12.982Z,19.40
2022-09-29T19:30:21.174Z,19.90
2022-09-29T19:35:24.370Z,23.00
2022-09-29T19:40:31.224Z,20.60
2022-09-29T19:45:37.610Z,20.10
2022-09-29T19:50:59.399Z,20.90
2022-09-29T19:56:08.249Z,20.90
2022-09-29T20:01:11.823Z,19.50
2022-09-29T20:06:15.088Z,20.30
2022-09-29T20:11:17.937Z,21.70
2022-09-29T20:16:20.979Z,21.70
2022-09-29T20:21:24.697Z,20.40
2022-09-29T20:26:28.403Z,22.00
2022-09-29T20:31:31.837Z,27.80
2022-09-29T20:36:35.029Z,23.20
2022-09-29T20:41:37.926Z,21.30
2022-09-29T20:46:41.611Z,21.60
2022-09-29T20:51:45.300Z,22.10
2022-09-29T20:56:48.428Z,23.70
2022-09-29T21:01:52.504Z,22.50
2022-09-29T21:06:55.580Z,31.30
2022-09-29T21:11:58.396Z,30.60
2022-09-29T21:17:01.670Z,31.60
2022-09-29T21:22:04.502Z,30.40
2022-09-29T21:27:07.797Z,27.50
2022-09-29T21:32:10.531Z,28.40
2022-09-29T21:37:13.348Z,26.10
2022-09-29T21:42:16.159Z,25.90
2022-09-29T21:47:38.797Z,27.40
2022-09-29T21:52:42.594Z,30.40
2022-09-29T21:57:45.441Z,27.00
2022-09-29T22:02:49.113Z,25.50
2022-09-29T22:07:51.923Z,28.40
2022-09-29T22:12:54.687Z,28.70
2022-09-29T22:17:57.391Z,27.40
2022-09-29T22:23:00.131Z,28.30
2022-09-29T22:28:02.856Z,29.10
2022-09-29T22:33:05.755Z,29.00
2022-09-29T22:38:09.229Z,29.00
2022-09-29T22:43:12.628Z,27.50
2022-09-29T22:48:16.743Z,28.70
2022-09-29T22:53:19.466Z,33.40
2022-09-29T22:58:25.365Z,31.80
2022-09-29T23:03:28.047Z,38.20
2022-09-29T23:08:32.705Z,38.90
2022-09-29T23:13:37.105Z,37.70
2022-09-29T23:18:45.189Z,36.00
2022-09-29T23:23:52.662Z,35.60
2022-09-29T23:28:55.798Z,34.90
2022-09-29T23:33:59.506Z,35.80
2022-09-29T23:39:13.617Z,32.80
2022-09-29T23:44:19.201Z,34.40
2022-09-29T23:49:27.585Z,37.50
2022-09-29T23:54:30.443Z,32.80
2022-09-29T23:59:33.272Z,34.00
